Time;durP1;ratioP1;P1;durP2;ratioP2;P2;SDS_P1;SDS_P2;PMS_P1;PMS_P2;Temp;Humidity;BMP_temperature;BMP_pressure;BME280_temperature;BME280_humidity;BME280_pressure;Samples;Min_cycle;Max_cycle;Signal;HPM_P1;HPM_P2
2023/06/17 00:00:13;;;;;;;4.80;4.20;;;;;;;19.03;44.82;97178.75;4957030;28;20392;-79
2023/06/17 00:02:38;;;;;;;5.30;4.60;;;;;;;18.98;44.87;97173.59;4945181;28;20200;-79
2023/06/17 00:05:05;;;;;;;4.63;4.20;;;;;;;18.90;44.91;97164.53;4949873;28;20420;-80
2023/06/17 00:07:30;;;;;;;5.32;4.00;;;;;;;18.90;44.90;97164.53;4958222;28;20149;-79
2023/06/17 00:09:56;;;;;;;5.22;4.38;;;;;;;18.88;45.04;97177.25;4943652;28;20179;-80
2023/06/17 00:12:24;;;;;;;6.05;4.32;;;;;;;18.77;45.54;97170.59;4947426;28;20259;-79
2023/06/17 00:14:51;;;;;;;5.20;4.70;;;;;;;18.72;45.07;97158.31;4921803;28;20220;-80
2023/06/17 00:17:17;;;;;;;6.53;4.65;;;;;;;18.71;45.40;97171.78;4921329;28;20373;-80
2023/06/17 00:19:43;;;;;;;4.93;4.43;;;;;;;18.66;45.39;97161.34;4914901;28;20198;-79
2023/06/17 00:22:09;;;;;;;4.88;4.25;;;;;;;18.59;45.87;97168.88;4940050;28;20255;-79
2023/06/17 00:24:35;;;;;;;5.13;4.57;;;;;;;18.54;45.93;97167.13;4938764;28;20689;-79
2023/06/17 00:27:00;;;;;;;5.10;4.38;;;;;;;18.51;45.60;97170.38;4956022;28;20364;-79
2023/06/17 00:29:26;;;;;;;5.30;4.75;;;;;;;18.42;45.80;97162.38;4938354;28;20305;-79
2023/06/17 00:31:51;;;;;;;4.90;4.47;;;;;;;18.39;45.87;97165.63;4942362;28;20195;-79
2023/06/17 00:34:17;;;;;;;5.68;5.00;;;;;;;18.35;45.74;97161.97;4958263;28;20396;-80
2023/06/17 00:36:42;;;;;;;4.95;4.45;;;;;;;18.28;46.30;97159.78;4929481;28;20276;-79
2023/06/17 00:39:08;;;;;;;6.10;4.72;;;;;;;18.22;46.61;97160.94;4920525;28;20258;-80
2023/06/17 00:41:33;;;;;;;5.28;4.78;;;;;;;18.21;46.44;97158.59;4938407;28;20235;-79
2023/06/17 00:43:59;;;;;;;5.15;4.55;;;;;;;18.19;46.38;97153.63;4928255;28;20241;-79
2023/06/17 00:46:36;;;;;;;5.63;4.10;;;;;;;18.29;46.39;97166.59;4923657;28;20394;-79
2023/06/17 00:49:03;;;;;;;5.00;4.53;;;;;;;18.19;46.29;97155.47;4949285;28;20337;-79
2023/06/17 00:51:31;;;;;;;4.72;4.28;;;;;;;18.15;46.49;97156.06;4931552;28;20354;-80
2023/06/17 00:53:58;;;;;;;4.60;4.20;;;;;;;18.11;46.46;97155.09;4937769;28;20392;-79
2023/06/17 00:56:25;;;;;;;5.40;4.28;;;;;;;18.12;46.45;97154.00;4944725;28;20550;-80
2023/06/17 00:58:51;;;;;;;5.10;4.60;;;;;;;18.07;46.73;97162.00;4946664;28;20207;-80
2023/06/17 01:01:17;;;;;;;5.90;5.20;;;;;;;17.93;46.90;97153.34;4921322;28;20308;-79
2023/06/17 01:03:46;;;;;;;5.72;4.57;;;;;;;17.88;46.71;97154.19;4938916;23;20214;-80
2023/06/17 01:06:19;;;;;;;5.40;4.90;;;;;;;17.94;47.09;97160.16;4894385;28;20250;-79
2023/06/17 01:08:51;;;;;;;5.47;4.97;;;;;;;17.86;47.09;97163.44;4931732;28;20189;-80
2023/06/17 01:11:19;;;;;;;5.95;4.75;;;;;;;17.74;47.21;97151.53;4914673;28;20268;-80
2023/06/17 01:13:48;;;;;;;6.28;5.10;;;;;;;17.74;47.34;97158.66;4911945;28;20294;-79
2023/06/17 01:16:14;;;;;;;6.18;5.20;;;;;;;17.62;47.98;97153.84;4898695;28;20423;-79
2023/06/17 01:18:40;;;;;;;5.63;4.70;;;;;;;17.58;47.85;97163.38;4944000;28;20408;-80
2023/06/17 01:21:06;;;;;;;5.53;5.03;;;;;;;17.50;47.91;97150.91;4914461;28;20173;-80
2023/06/17 01:23:34;;;;;;;5.40;4.53;;;;;;;17.47;48.43;97147.00;4913770;28;20643;-79
2023/06/17 01:26:04;;;;;;;5.05;4.53;;;;;;;17.52;48.57;97154.03;4947683;28;20204;-79
2023/06/17 01:28:30;;;;;;;6.43;4.60;;;;;;;17.40;48.26;97154.50;4910160;28;20235;-79
2023/06/17 01:30:56;;;;;;;6.18;4.95;;;;;;;17.41;48.16;97153.44;4928391;28;20244;-80
2023/06/17 01:33:26;;;;;;;5.15;4.65;;;;;;;17.42;48.05;97155.75;4928571;28;20189;-79
2023/06/17 01:36:02;;;;;;;5.00;4.50;;;;;;;17.52;47.97;97154.81;4929516;28;20267;-79
2023/06/17 01:38:35;;;;;;;7.88;5.35;;;;;;;17.52;48.22;97154.81;4921076;28;20574;-79
2023/06/17 01:41:19;;;;;;;6.00;4.68;;;;;;;17.50;48.04;97153.53;4931683;28;20251;-79
2023/06/17 01:43:46;;;;;;;5.88;4.43;;;;;;;17.41;48.02;97150.81;4914801;28;20250;-80
2023/06/17 01:46:13;;;;;;;5.07;4.57;;;;;;;17.39;48.43;97151.09;4914747;28;20617;-80
2023/06/17 01:48:39;;;;;;;5.05;4.55;;;;;;;17.38;48.51;97154.78;4930199;28;20334;-79
2023/06/17 01:51:05;;;;;;;5.28;4.78;;;;;;;17.34;48.40;97155.63;4930106;28;20180;-79
2023/06/17 01:53:31;;;;;;;5.35;4.63;;;;;;;17.36;48.52;97146.41;4911210;28;20197;-80
2023/06/17 01:55:56;;;;;;;5.50;4.78;;;;;;;17.29;48.37;97143.34;4928324;28;20364;-79
2023/06/17 01:58:22;;;;;;;4.60;4.20;;;;;;;17.29;48.00;97148.63;4914311;28;20197;-79
2023/06/17 02:00:47;;;;;;;4.72;4.10;;;;;;;17.32;47.71;97147.25;4945553;28;20516;-79
2023/06/17 02:03:13;;;;;;;4.70;4.30;;;;;;;17.28;47.97;97149.69;4927033;28;20204;-80
2023/06/17 02:05:38;;;;;;;6.05;4.38;;;;;;;17.26;48.08;97143.94;4942577;28;20467;-79
2023/06/17 02:08:05;;;;;;;5.35;4.82;;;;;;;17.22;48.22;97138.47;4930165;28;20147;-80
2023/06/17 02:10:31;;;;;;;4.85;4.28;;;;;;;17.28;47.87;97154.16;4898116;28;20446;-80
2023/06/17 02:12:57;;;;;;;5.78;4.55;;;;;;;17.23;48.66;97152.38;4914913;28;20182;-79
2023/06/17 02:15:22;;;;;;;5.18;4.68;;;;;;;17.14;48.24;97144.38;4943810;28;20402;-79
2023/06/17 02:17:48;;;;;;;5.88;4.63;;;;;;;17.13;47.96;97148.06;4883881;28;20493;-79
2023/06/17 02:20:13;;;;;;;5.10;4.57;;;;;;;17.13;48.63;97149.91;4898282;28;20188;-79
2023/06/17 02:22:39;;;;;;;5.13;4.72;;;;;;;17.02;48.55;97150.06;4921363;28;20244;-80
2023/06/17 02:25:05;;;;;;;4.63;4.20;;;;;;;17.01;48.66;97143.25;4897454;28;20271;-80
2023/06/17 02:27:30;;;;;;;5.40;4.70;;;;;;;16.93;49.16;97137.84;4927912;28;20237;-80
2023/06/17 02:29:56;;;;;;;5.55;4.68;;;;;;;16.96;48.80;97142.53;4929526;28;20344;-79
2023/06/17 02:32:22;;;;;;;5.28;4.78;;;;;;;16.89;49.12;97132.38;4906108;28;20474;-79
2023/06/17 02:34:50;;;;;;;4.85;4.28;;;;;;;16.92;48.90;97136.31;4909600;28;20597;-79
2023/06/17 02:37:16;;;;;;;4.75;4.00;;;;;;;16.89;48.76;97135.00;4912584;28;20325;-80
2023/06/17 02:39:41;;;;;;;5.32;4.82;;;;;;;16.92;48.52;97129.19;4928937;28;20300;-80
2023/06/17 02:42:08;;;;;;;4.82;4.32;;;;;;;16.97;48.17;97128.34;4945457;28;20585;-79
2023/06/17 02:44:33;;;;;;;4.60;4.07;;;;;;;16.98;48.33;97129.88;4913485;28;20213;-80
2023/06/17 02:46:59;;;;;;;4.93;4.43;;;;;;;16.96;48.44;97121.50;4907341;28;20192;-80
2023/06/17 02:49:24;;;;;;;5.63;4.40;;;;;;;16.94;48.66;97124.41;4942851;28;20271;-79
2023/06/17 02:51:51;;;;;;;5.07;4.57;;;;;;;16.97;48.80;97117.81;4928255;28;20103;-79
2023/06/17 02:54:16;;;;;;;7.03;4.82;;;;;;;16.97;48.94;97120.44;4910322;28;20481;-79
2023/06/17 02:56:42;;;;;;;4.85;4.20;;;;;;;16.91;48.77;97118.94;4924593;28;20556;-79
2023/06/17 02:59:08;;;;;;;5.18;4.53;;;;;;;16.92;48.71;97125.78;4897744;28;20208;-80
2023/06/17 03:01:39;;;;;;;5.30;4.60;;;;;;;16.90;49.11;97123.44;4946314;28;20257;-79
2023/06/17 03:04:05;;;;;;;5.00;4.50;;;;;;;16.90;48.91;97122.66;4928506;28;20201;-80
2023/06/17 03:06:33;;;;;;;6.70;5.97;;;;;;;16.91;49.18;97126.84;4930391;28;20269;-79
2023/06/17 03:09:00;;;;;;;5.55;4.68;;;;;;;16.93;48.77;97127.34;4929288;28;20176;-80
2023/06/17 03:11:26;;;;;;;5.07;4.50;;;;;;;16.87;48.88;97124.00;4914168;28;20273;-79
2023/06/17 03:13:51;;;;;;;7.30;4.60;;;;;;;16.84;48.78;97125.38;4894484;28;20201;-80
2023/06/17 03:16:17;;;;;;;5.72;4.20;;;;;;;16.80;48.78;97123.56;4930269;28;20442;-80
2023/06/17 03:18:42;;;;;;;5.78;4.45;;;;;;;16.77;49.03;97130.16;4914592;28;20213;-80
2023/06/17 03:21:08;;;;;;;5.28;4.30;;;;;;;16.68;48.79;97116.09;4929921;28;20289;-79
2023/06/17 03:23:33;;;;;;;6.15;4.70;;;;;;;16.72;48.96;97122.34;4910342;28;20201;-80
2023/06/17 03:25:58;;;;;;;6.00;4.75;;;;;;;16.64;49.02;97126.41;4908206;28;20215;-79
2023/06/17 03:28:24;;;;;;;6.43;5.10;;;;;;;16.59;49.90;97129.09;4945942;28;20346;-80
2023/06/17 03:30:50;;;;;;;5.05;4.47;;;;;;;16.56;49.90;97134.94;4912243;28;20213;-78
2023/06/17 03:33:15;;;;;;;5.30;4.80;;;;;;;16.58;49.84;97132.78;4929411;28;20166;-79
2023/06/17 03:35:41;;;;;;;4.97;4.47;;;;;;;16.52;50.26;97115.53;4930470;28;20405;-79
2023/06/17 03:38:07;;;;;;;5.63;5.13;;;;;;;16.59;50.14;97129.09;4945006;28;20593;-79
2023/06/17 03:40:33;;;;;;;5.40;4.90;;;;;;;16.55;50.43;97128.09;4914091;28;20311;-79
2023/06/17 03:42:58;;;;;;;4.95;4.45;;;;;;;16.56;50.52;97134.94;4927238;28;20094;-79
2023/06/17 03:45:24;;;;;;;5.55;4.40;;;;;;;16.56;50.65;97129.66;4906775;28;20324;-80
2023/06/17 03:47:49;;;;;;;5.55;4.93;;;;;;;16.55;50.46;97129.94;4940499;28;20216;-79
2023/06/17 03:50:15;;;;;;;5.25;4.75;;;;;;;16.59;50.18;97131.75;4928238;28;20330;-80
2023/06/17 03:52:40;;;;;;;5.72;5.10;;;;;;;16.60;50.52;97119.38;4929187;28;20366;-79
2023/06/17 03:55:06;;;;;;;5.70;4.97;;;;;;;16.63;50.05;97124.84;4928595;28;20406;-80
2023/06/17 03:57:31;;;;;;;5.38;4.88;;;;;;;16.69;50.21;97127.38;4927902;28;20179;-79
2023/06/17 03:59:57;;;;;;;5.28;4.78;;;;;;;16.71;50.26;97127.88;4912604;28;20385;-79
2023/06/17 04:02:23;;;;;;;5.57;4.97;;;;;;;16.69;49.91;97111.63;4909526;28;20553;-78
2023/06/17 04:04:52;;;;;;;4.38;3.97;;;;;;;16.75;49.89;97115.75;4911438;28;20211;-79
2023/06/17 04:07:19;;;;;;;5.00;4.50;;;;;;;16.82;49.87;97110.91;4911944;28;20105;-79
2023/06/17 04:09:45;;;;;;;5.18;4.40;;;;;;;16.84;49.33;97114.06;4920045;28;20064;-79
2023/06/17 04:12:10;;;;;;;5.30;4.63;;;;;;;16.89;49.33;97119.25;4912335;28;20212;-80
2023/06/17 04:14:36;;;;;;;5.57;5.03;;;;;;;16.96;49.51;97119.66;4925944;28;20642;-80
2023/06/17 04:17:01;;;;;;;6.82;5.05;;;;;;;16.98;49.65;97114.09;4906427;28;20156;-79
2023/06/17 04:19:27;;;;;;;5.32;4.72;;;;;;;17.03;49.87;97122.72;4924332;28;20130;-80
2023/06/17 04:21:52;;;;;;;6.40;5.28;;;;;;;17.09;50.04;97123.41;4893405;28;20380;-79
2023/06/17 04:24:18;;;;;;;5.57;4.95;;;;;;;17.07;49.97;97120.28;4909368;28;20224;-79
2023/06/17 04:26:44;;;;;;;8.10;4.90;;;;;;;17.08;50.45;97124.47;4903960;28;20385;-80
2023/06/17 04:29:10;;;;;;;5.35;4.50;;;;;;;17.14;50.28;97117.28;4905795;28;20409;-79
2023/06/17 04:31:40;;;;;;;7.18;4.65;;;;;;;17.17;50.90;97120.13;4930625;28;20318;-79
2023/06/17 04:34:07;;;;;;;5.90;4.93;;;;;;;17.28;50.40;97122.59;4918548;28;20287;-80
2023/06/17 04:36:32;;;;;;;5.55;5.00;;;;;;;17.39;50.94;97121.34;4945235;28;20241;-79
2023/06/17 04:38:58;;;;;;;5.65;5.05;;;;;;;17.46;50.59;97119.13;4928866;28;20433;-80
2023/06/17 04:41:24;;;;;;;5.00;4.50;;;;;;;17.58;50.58;97123.91;4928610;28;20184;-80
2023/06/17 04:43:49;;;;;;;5.15;4.65;;;;;;;17.66;50.60;97120.59;4928785;28;20201;-79
2023/06/17 04:46:19;;;;;;;5.68;4.70;;;;;;;17.74;50.28;97119.94;4930020;28;20204;-79
2023/06/17 04:48:45;;;;;;;5.10;4.55;;;;;;;17.83;50.73;97125.28;4916305;28;20527;-79
2023/06/17 04:51:10;;;;;;;5.50;4.78;;;;;;;17.94;50.74;97124.06;4947733;28;20334;-80
2023/06/17 04:53:39;;;;;;;5.82;5.22;;;;;;;18.04;50.73;97124.94;4930674;28;20201;-79
2023/06/17 04:56:06;;;;;;;5.78;5.00;;;;;;;18.10;50.78;97121.91;4915740;28;20283;-79
2023/06/17 04:58:32;;;;;;;6.45;5.53;;;;;;;18.23;50.88;97119.53;4930523;28;20131;-80
2023/06/17 05:00:58;;;;;;;6.28;5.68;;;;;;;18.32;49.60;97126.47;4910130;28;20334;-80
2023/06/17 05:03:23;;;;;;;7.05;5.25;;;;;;;18.44;48.67;97123.31;4914178;28;20224;-79
2023/06/17 05:05:50;;;;;;;7.03;5.05;;;;;;;18.54;48.29;97119.66;4916694;28;20374;-79
2023/06/17 05:08:15;;;;;;;5.70;5.10;;;;;;;18.61;48.16;97127.97;4886008;28;20445;-79
2023/06/17 05:10:41;;;;;;;5.70;5.20;;;;;;;18.67;48.13;97129.41;4947878;28;20657;-79
2023/06/17 05:13:06;;;;;;;5.30;4.72;;;;;;;18.66;47.32;97127.06;4910786;28;20358;-80
2023/06/17 05:15:31;;;;;;;6.43;5.13;;;;;;;18.78;47.50;97129.97;4928539;28;20203;-79
2023/06/17 05:17:57;;;;;;;5.47;4.97;;;;;;;18.89;47.47;97126.03;4930701;28;20196;-79
2023/06/17 05:20:22;;;;;;;5.55;5.05;;;;;;;18.96;47.03;97124.84;4914451;28;20100;-80
2023/06/17 05:22:47;;;;;;;6.15;5.53;;;;;;;19.00;47.07;97126.56;4914158;28;20216;-79
2023/06/17 05:25:13;;;;;;;5.25;4.75;;;;;;;19.12;46.90;97131.31;4922236;28;20202;-79
2023/06/17 05:27:38;;;;;;;5.38;4.88;;;;;;;19.22;46.67;97132.94;4915079;28;20192;-79
2023/06/17 05:30:05;;;;;;;6.00;5.40;;;;;;;19.36;46.62;97131.00;4923134;28;20339;-80
2023/06/17 05:32:31;;;;;;;5.57;4.90;;;;;;;19.45;46.94;97136.34;4912265;28;20379;-79
2023/06/17 05:34:56;;;;;;;5.50;5.00;;;;;;;19.61;47.51;97140.13;4929753;28;20173;-79
2023/06/17 05:37:21;;;;;;;5.47;4.97;;;;;;;19.77;47.96;97139.78;4911454;28;20276;-80
2023/06/17 05:39:47;;;;;;;5.60;5.10;;;;;;;19.97;47.76;97151.66;4930576;28;20298;-80
2023/06/17 05:42:12;;;;;;;5.57;5.07;;;;;;;20.14;46.86;97148.31;4930854;28;20103;-79
2023/06/17 05:44:40;;;;;;;5.90;5.10;;;;;;;20.35;46.14;97149.28;4909394;28;20283;-79
2023/06/17 05:47:06;;;;;;;5.97;5.47;;;;;;;20.53;45.23;97149.31;4926426;28;20193;-80
2023/06/17 05:49:31;;;;;;;5.32;4.85;;;;;;;20.74;44.00;97149.50;4906120;28;20437;-80
2023/06/17 05:51:56;;;;;;;6.28;5.30;;;;;;;20.93;43.05;97151.84;4911612;28;20413;-80
2023/06/17 05:54:22;;;;;;;6.30;5.55;;;;;;;21.08;43.16;97140.78;4910417;28;20290;-81
2023/06/17 05:56:47;;;;;;;5.55;5.05;;;;;;;21.25;42.37;97145.28;4906682;28;20107;-80
2023/06/17 05:59:13;;;;;;;5.70;4.68;;;;;;;21.45;41.73;97143.81;4945223;28;20276;-80
2023/06/17 06:01:38;;;;;;;5.78;5.03;;;;;;;21.70;41.42;97142.22;4945485;28;20579;-80
2023/06/17 06:04:04;;;;;;;5.82;4.88;;;;;;;21.94;40.44;97140.88;4928676;28;20245;-81
2023/06/17 06:06:29;;;;;;;5.20;4.68;;;;;;;22.07;39.63;97142.53;4913978;28;20385;-80
2023/06/17 06:08:55;;;;;;;5.57;4.63;;;;;;;22.32;39.81;97152.56;4929459;28;20373;-80
2023/06/17 06:11:20;;;;;;;5.82;4.88;;;;;;;22.54;38.67;97144.28;4930330;28;20212;-80
2023/06/17 06:13:46;;;;;;;4.55;4.15;;;;;;;22.69;37.71;97144.81;4928077;28;20418;-80
2023/06/17 06:16:11;;;;;;;4.90;4.50;;;;;;;22.88;37.27;97152.34;4911419;28;20283;-80
2023/06/17 06:18:36;;;;;;;5.20;4.80;;;;;;;23.02;36.59;97160.78;4922292;28;20583;-80
2023/06/17 06:21:02;;;;;;;5.40;4.90;;;;;;;23.24;35.39;97154.38;4913935;28;20219;-80
2023/06/17 06:23:27;;;;;;;6.72;5.05;;;;;;;23.40;34.85;97159.06;4910649;28;20280;-80
2023/06/17 06:25:53;;;;;;;6.05;4.80;;;;;;;23.56;34.85;97149.34;4927100;28;20451;-80
2023/06/17 06:28:18;;;;;;;5.65;5.10;;;;;;;23.81;34.76;97149.38;4940532;28;20231;-80
2023/06/17 06:30:44;;;;;;;5.28;4.75;;;;;;;24.04;35.42;97155.84;4912409;28;20283;-80
2023/06/17 06:33:09;;;;;;;5.40;4.93;;;;;;;24.25;35.23;97161.06;4911035;28;20752;-80
2023/06/17 06:35:34;;;;;;;5.35;4.68;;;;;;;24.41;35.65;97160.38;4928919;28;20178;-80
2023/06/17 06:38:00;;;;;;;5.07;4.57;;;;;;;24.64;35.07;97163.34;4929020;28;20365;-80
2023/06/17 06:40:25;;;;;;;6.05;4.90;;;;;;;24.78;35.60;97169.09;4895909;28;20243;-80
2023/06/17 06:42:50;;;;;;;6.25;4.93;;;;;;;25.02;35.58;97167.47;4913143;28;20607;-80
2023/06/17 06:45:16;;;;;;;5.53;5.05;;;;;;;25.22;34.77;97177.16;4927360;28;20252;-80
2023/06/17 06:47:41;;;;;;;5.63;5.13;;;;;;;25.38;34.39;97168.44;4930725;28;20327;-80
2023/06/17 06:50:07;;;;;;;5.78;5.18;;;;;;;25.65;34.52;97166.81;4928187;28;20205;-80
2023/06/17 06:52:32;;;;;;;5.13;4.72;;;;;;;25.91;34.31;97171.66;4935677;28;20214;-80
2023/06/17 06:54:58;;;;;;;5.95;5.07;;;;;;;26.11;34.18;97177.84;4916587;28;20254;-81
2023/06/17 06:57:23;;;;;;;5.93;5.43;;;;;;;26.23;34.26;97170.88;4927295;28;20106;-80
2023/06/17 06:59:49;;;;;;;6.30;5.45;;;;;;;26.46;34.88;97177.09;4912960;28;20228;-81
2023/06/17 07:02:14;;;;;;;5.95;5.43;;;;;;;26.55;33.25;97163.56;4911976;28;20674;-81
2023/06/17 07:04:40;;;;;;;6.07;5.53;;;;;;;26.65;34.46;97173.72;4907973;28;20320;-80
2023/06/17 07:07:05;;;;;;;7.53;5.50;;;;;;;26.79;34.13;97165.22;4918168;28;20449;-80
2023/06/17 07:09:31;;;;;;;6.20;5.70;;;;;;;26.91;33.91;97175.75;4922147;28;20550;-80
2023/06/17 07:11:56;;;;;;;6.28;5.68;;;;;;;27.15;33.45;97173.94;4913692;28;20436;-80
2023/06/17 07:14:21;;;;;;;8.05;5.88;;;;;;;27.38;33.18;97176.66;4912023;28;20501;-81
2023/06/17 07:16:47;;;;;;;5.97;5.47;;;;;;;27.54;33.50;97170.44;4910535;28;20338;-80
2023/06/17 07:19:12;;;;;;;6.32;5.78;;;;;;;27.42;33.55;97169.50;4942881;28;20523;-81
2023/06/17 07:21:38;;;;;;;6.43;5.40;;;;;;;27.58;33.61;97174.72;4922719;28;20276;-81
2023/06/17 07:24:03;;;;;;;6.82;6.13;;;;;;;27.81;33.87;97166.72;4931300;28;20205;-80
2023/06/17 07:26:29;;;;;;;6.53;6.03;;;;;;;27.95;33.18;97179.56;4930199;28;20319;-80
2023/06/17 07:28:55;;;;;;;6.63;6.03;;;;;;;27.96;33.90;97174.97;4928142;28;20279;-81
2023/06/17 07:31:22;;;;;;;6.03;5.40;;;;;;;28.21;33.64;97178.81;4918718;28;20178;-81
2023/06/17 07:33:48;;;;;;;6.35;5.75;;;;;;;28.09;33.21;97184.38;4911170;28;20207;-79
2023/06/17 07:36:13;;;;;;;6.30;5.72;;;;;;;28.15;32.35;97174.88;4940483;28;20182;-80
2023/06/17 07:38:38;;;;;;;6.07;5.57;;;;;;;28.29;31.54;97178.91;4944921;28;20209;-81
2023/06/17 07:41:04;;;;;;;6.10;5.60;;;;;;;28.25;31.39;97178.84;4906712;28;20184;-80
2023/06/17 07:43:29;;;;;;;5.90;5.40;;;;;;;28.54;30.95;97174.66;4909415;28;20259;-80
2023/06/17 07:45:55;;;;;;;6.22;5.57;;;;;;;28.77;29.93;97179.97;4906370;28;20508;-81
2023/06/17 07:48:20;;;;;;;5.30;4.90;;;;;;;28.84;29.63;97176.59;4926051;28;20213;-80
2023/06/17 07:50:46;;;;;;;6.45;5.80;;;;;;;29.06;30.14;97177.59;4928824;28;20279;-81
2023/06/17 07:53:11;;;;;;;6.78;6.05;;;;;;;29.07;30.11;97173.03;4894270;28;20154;-80
2023/06/17 07:55:37;;;;;;;6.07;5.63;;;;;;;29.31;29.73;97177.16;4923547;28;20767;-80
2023/06/17 07:58:03;;;;;;;6.05;5.50;;;;;;;29.59;29.37;97175.88;4928029;28;20184;-80
2023/06/17 08:00:28;;;;;;;6.10;5.60;;;;;;;29.77;29.31;97178.75;4921019;28;20368;-81
2023/06/17 08:02:54;;;;;;;6.72;6.22;;;;;;;29.38;28.96;97173.75;4940331;28;20167;-80
2023/06/17 08:05:20;;;;;;;6.70;6.10;;;;;;;29.65;29.04;97171.72;4910503;28;20402;-80
2023/06/17 08:07:45;;;;;;;6.80;6.30;;;;;;;29.73;28.55;97172.53;4913821;28;20105;-81
2023/06/17 08:10:11;;;;;;;5.97;5.47;;;;;;;30.16;28.54;97170.97;4888774;28;20378;-80
2023/06/17 08:12:36;;;;;;;5.78;5.18;;;;;;;30.14;27.31;97172.50;4929866;28;20220;-80
2023/06/17 08:15:02;;;;;;;7.32;5.95;;;;;;;30.20;26.20;97158.34;4913945;28;20235;-81
2023/06/17 08:17:27;;;;;;;8.23;5.80;;;;;;;30.17;26.62;97161.75;4910731;28;20400;-81
2023/06/17 08:19:52;;;;;;;6.03;5.47;;;;;;;30.41;25.46;97162.31;4922711;28;20194;-81
2023/06/17 08:22:20;;;;;;;6.15;5.68;;;;;;;30.39;25.53;97165.38;4944946;28;20300;-80
2023/06/17 08:24:45;;;;;;;5.95;5.35;;;;;;;30.43;23.17;97168.09;4912475;28;20222;-80
2023/06/17 08:27:10;;;;;;;6.22;4.93;;;;;;;30.52;22.70;97165.06;4929452;28;20433;-80
2023/06/17 08:29:36;;;;;;;5.75;5.15;;;;;;;30.77;21.65;97159.81;4914051;28;20211;-81
2023/06/17 08:32:01;;;;;;;6.25;5.15;;;;;;;31.19;21.80;97163.81;4911508;28;20460;-80
2023/06/17 08:34:30;;;;;;;5.03;4.60;;;;;;;31.42;20.33;97149.25;4930175;28;20355;-81
2023/06/17 08:36:56;;;;;;;5.70;5.20;;;;;;;31.44;21.16;97153.06;4912936;28;20196;-81
2023/06/17 08:39:21;;;;;;;5.82;5.22;;;;;;;31.23;22.16;97147.69;4913238;28;20222;-81
2023/06/17 08:41:47;;;;;;;6.13;5.65;;;;;;;30.75;21.13;97157.50;4908806;28;20508;-80
2023/06/17 08:44:13;;;;;;;5.43;4.93;;;;;;;30.74;20.66;97158.66;4909435;28;20343;-81
2023/06/17 08:46:43;;;;;;;5.20;4.80;;;;;;;31.23;19.76;97153.81;4910931;28;20687;-82
2023/06/17 08:49:10;;;;;;;5.72;5.22;;;;;;;31.47;19.52;97151.56;4942760;28;20128;-80
2023/06/17 08:51:36;;;;;;;5.53;5.03;;;;;;;31.40;19.89;97155.00;4910458;28;20193;-81
2023/06/17 08:54:02;;;;;;;5.20;4.80;;;;;;;31.76;19.02;97151.59;4910925;28;20271;-81
2023/06/17 08:56:27;;;;;;;5.45;4.95;;;;;;;31.92;18.28;97151.94;4928474;28;20232;-80
2023/06/17 08:58:55;;;;;;;5.32;4.93;;;;;;;32.00;18.77;97150.03;4941592;28;20371;-81
2023/06/17 09:01:21;;;;;;;5.82;5.32;;;;;;;31.75;19.30;97145.41;4911500;28;20230;-81
2023/06/17 09:03:47;;;;;;;6.15;5.60;;;;;;;31.76;20.00;97135.44;4914279;28;20311;-81
2023/06/17 09:06:16;;;;;;;5.25;4.85;;;;;;;32.17;18.81;97143.88;4925032;28;20394;-79
2023/06/17 09:08:42;;;;;;;6.03;4.90;;;;;;;32.37;18.39;97143.44;4923400;28;20441;-80
2023/06/17 09:11:07;;;;;;;5.80;4.68;;;;;;;32.46;18.98;97139.16;4907906;28;20273;-78
2023/06/17 09:13:33;;;;;;;5.93;5.43;;;;;;;32.29;18.66;97127.28;4928693;28;20405;-80
2023/06/17 09:15:59;;;;;;;5.80;5.20;;;;;;;31.80;20.15;97139.66;4912085;28;20318;-79
2023/06/17 09:18:25;;;;;;;5.57;5.07;;;;;;;31.71;19.75;97139.28;4924648;28;20373;-80
2023/06/17 09:20:57;;;;;;;5.38;4.97;;;;;;;31.93;20.25;97140.03;4924561;28;20214;-80
2023/06/17 09:23:25;;;;;;;4.78;4.38;;;;;;;32.36;20.18;97139.97;4910773;28;20188;-78
2023/06/17 09:26:02;;;;;;;6.45;5.85;;;;;;;32.32;20.16;97144.63;4909084;28;20167;-79
2023/06/17 09:28:27;;;;;;;5.45;4.95;;;;;;;32.55;18.51;97130.66;4922371;28;20215;-80
2023/06/17 09:30:56;;;;;;;6.75;5.43;;;;;;;32.42;19.99;97140.34;4914477;28;20492;-79
2023/06/17 09:33:24;;;;;;;5.43;5.03;;;;;;;32.46;19.88;97127.63;4930335;28;20394;-80
2023/06/17 09:36:08;;;;;;;5.78;5.30;;;;;;;32.64;19.67;97122.94;4947055;28;20355;-79
2023/06/17 09:38:35;;;;;;;6.60;5.30;;;;;;;32.74;19.23;97131.41;4910990;28;20178;-79
2023/06/17 09:41:01;;;;;;;5.75;5.20;;;;;;;32.71;18.82;97132.94;4888481;28;20213;-80
2023/06/17 09:43:27;;;;;;;5.80;5.25;;;;;;;32.75;18.98;97120.22;4931647;28;20201;-80
2023/06/17 09:46:03;;;;;;;5.75;5.25;;;;;;;32.79;19.24;97125.59;4913678;28;20480;-80
2023/06/17 09:48:33;;;;;;;5.75;5.18;;;;;;;32.72;18.39;97125.63;4923917;28;20352;-79
2023/06/17 09:51:00;;;;;;;5.78;5.20;;;;;;;32.94;17.79;97127.06;4915537;28;20317;-78
2023/06/17 09:53:29;;;;;;;4.93;4.55;;;;;;;32.29;18.69;97118.44;4907187;28;20299;-79
2023/06/17 09:55:57;;;;;;;5.72;5.32;;;;;;;32.48;18.37;97117.22;4913143;28;20175;-79
2023/06/17 09:58:32;;;;;;;5.30;4.78;;;;;;;33.09;18.64;97108.06;4930675;28;20198;-79
2023/06/17 10:01:00;;;;;;;5.53;5.00;;;;;;;33.30;18.09;97104.50;4914625;28;20327;-79
2023/06/17 10:03:26;;;;;;;5.10;4.70;;;;;;;33.59;19.14;97110.44;4914299;28;20149;-80
2023/06/17 10:06:01;;;;;;;5.80;5.35;;;;;;;33.83;18.03;97100.63;4911240;28;20395;-79
2023/06/17 10:08:26;;;;;;;5.88;5.45;;;;;;;34.02;18.24;97101.97;4927684;28;20192;-80
2023/06/17 10:10:53;;;;;;;5.28;4.85;;;;;;;34.42;17.40;97102.31;4911260;28;20458;-80
2023/06/17 10:13:20;;;;;;;5.18;4.78;;;;;;;34.45;16.88;97101.50;4926858;28;20123;-79
2023/06/17 10:15:46;;;;;;;5.45;4.88;;;;;;;34.36;16.06;97103.94;4944999;28;20314;-79
2023/06/17 10:18:15;;;;;;;4.95;4.28;;;;;;;34.34;15.94;97100.88;4929550;28;20191;-79
2023/06/17 10:20:42;;;;;;;4.75;4.43;;;;;;;34.39;15.91;97105.06;4943524;28;20320;-79
2023/06/17 10:23:08;;;;;;;4.95;4.38;;;;;;;33.72;16.52;97106.09;4887761;28;20165;-79
2023/06/17 10:25:33;;;;;;;5.15;4.57;;;;;;;33.43;17.44;97107.50;4907917;28;20187;-78
2023/06/17 10:28:01;;;;;;;5.13;4.25;;;;;;;33.77;15.86;97104.91;4941331;28;20216;-78
2023/06/17 10:30:28;;;;;;;3.85;3.55;;;;;;;33.95;15.45;97107.44;4920526;28;20289;-78
2023/06/17 10:32:58;;;;;;;4.65;4.35;;;;;;;33.77;16.49;97108.38;4928844;28;20201;-78
2023/06/17 10:35:24;;;;;;;4.60;4.20;;;;;;;33.89;15.41;97106.34;4925532;28;20193;-79
2023/06/17 10:37:50;;;;;;;4.20;3.90;;;;;;;33.90;15.13;97108.66;4891250;28;20200;-79
2023/06/17 10:40:26;;;;;;;3.95;3.65;;;;;;;34.00;16.42;97108.94;4926653;28;20197;-79
2023/06/17 10:43:13;;;;;;;3.65;3.40;;;;;;;34.39;15.65;97097.72;4895599;28;20363;-79
2023/06/17 10:45:55;;;;;;;3.97;3.65;;;;;;;34.84;15.40;97100.28;4920353;28;20594;-78
2023/06/17 10:48:25;;;;;;;4.90;4.50;;;;;;;34.85;16.22;97099.09;4912442;28;20490;-79
2023/06/17 10:50:57;;;;;;;4.80;4.40;;;;;;;34.74;15.01;97100.41;4912478;28;20138;-80
2023/06/17 10:53:35;;;;;;;4.85;4.45;;;;;;;34.65;15.20;97095.47;4925415;28;20197;-79
2023/06/17 10:56:03;;;;;;;4.78;4.38;;;;;;;34.44;15.90;97096.50;4892385;28;21187;-80
2023/06/17 10:58:32;;;;;;;5.18;3.97;;;;;;;34.70;15.86;97090.38;4926066;28;20188;-78
2023/06/17 11:01:24;;;;;;;4.50;3.65;;;;;;;35.04;14.97;97083.38;4924551;28;20196;-79
2023/06/17 11:03:49;;;;;;;4.25;3.95;;;;;;;34.74;14.85;97090.38;4909140;28;20338;-79
2023/06/17 11:06:15;;;;;;;3.80;3.50;;;;;;;34.78;14.40;97088.38;4912172;28;20367;-79
2023/06/17 11:08:40;;;;;;;3.92;3.63;;;;;;;34.42;14.96;97086.09;4901996;28;20245;-78
2023/06/17 11:11:11;;;;;;;3.95;3.65;;;;;;;34.16;15.16;97095.66;4908194;28;20686;-78
2023/06/17 11:13:37;;;;;;;4.28;3.97;;;;;;;34.06;14.46;97094.59;4909551;28;20267;-79
2023/06/17 11:16:03;;;;;;;4.63;4.22;;;;;;;34.06;14.33;97091.13;4903450;28;20329;-79
2023/06/17 11:18:29;;;;;;;4.20;3.80;;;;;;;34.07;14.44;97093.44;4944406;28;20364;-78
2023/06/17 11:20:54;;;;;;;3.95;3.65;;;;;;;33.72;15.47;97083.75;4926936;28;20429;-79
2023/06/17 11:23:20;;;;;;;4.35;3.95;;;;;;;33.25;15.24;97084.09;4927595;28;20092;-79
2023/06/17 11:25:45;;;;;;;4.43;4.13;;;;;;;33.26;15.76;97084.88;4925759;28;20401;-78
2023/06/17 11:28:11;;;;;;;4.50;4.10;;;;;;;33.15;15.71;97088.41;4942980;28;20267;-78
2023/06/17 11:30:36;;;;;;;5.10;4.70;;;;;;;32.95;16.73;97076.56;4926007;28;20204;-78